Time;durP1;ratioP1;P1;durP2;ratioP2;P2;SDS_P1;SDS_P2;PMS_P1;PMS_P2;Temp;Humidity;BMP_temperature;BMP_pressure;BME280_temperature;BME280_humidity;BME280_pressure;Samples;Min_cycle;Max_cycle;Signal;HPM_P1;HPM_P2
2021/08/09 00:01:42;;;;;;;1.58;1.25;;;19.70;63.40;;;;;;4919180;29;20055;-79
2021/08/09 00:04:08;;;;;;;1.65;1.27;;;19.70;63.50;;;;;;4918430;29;20416;-79
2021/08/09 00:06:34;;;;;;;1.27;1.00;;;19.70;63.50;;;;;;4919815;29;20476;-80
2021/08/09 00:09:02;;;;;;;0.90;0.90;;;19.60;63.50;;;;;;4918408;29;20036;-80
2021/08/09 00:11:28;;;;;;;1.45;1.00;;;19.60;63.50;;;;;;4903611;29;20043;-80
2021/08/09 00:13:53;;;;;;;1.63;1.20;;;19.60;63.60;;;;;;4934290;29;20036;-80
2021/08/09 00:16:19;;;;;;;1.13;1.02;;;19.60;63.60;;;;;;4918664;29;20024;-80
2021/08/09 00:18:49;;;;;;;1.60;1.10;;;19.60;63.60;;;;;;4918433;29;20437;-80
2021/08/09 00:21:16;;;;;;;2.38;1.20;;;19.60;63.60;;;;;;4918291;29;20143;-80
2021/08/09 00:23:42;;;;;;;1.75;1.10;;;19.60;63.60;;;;;;4918029;29;20488;-80
2021/08/09 00:26:08;;;;;;;1.45;1.13;;;19.50;63.60;;;;;;4903329;29;20043;-79
2021/08/09 00:28:35;;;;;;;1.88;1.20;;;19.50;63.60;;;;;;4902800;29;20024;-79
2021/08/09 00:31:00;;;;;;;2.33;1.33;;;19.50;63.70;;;;;;4901562;29;20024;-80
2021/08/09 00:33:26;;;;;;;2.10;1.25;;;19.50;63.70;;;;;;4902226;29;20129;-80
2021/08/09 00:35:52;;;;;;;1.60;1.10;;;19.50;63.70;;;;;;4933511;29;20032;-80
2021/08/09 00:38:19;;;;;;;2.17;1.15;;;19.40;63.70;;;;;;4917930;29;20040;-80
2021/08/09 00:40:46;;;;;;;2.15;1.20;;;19.50;63.80;;;;;;4902485;29;20040;-80
2021/08/09 00:43:11;;;;;;;1.30;1.08;;;19.40;64.40;;;;;;4902297;29;20036;-80
2021/08/09 00:45:38;;;;;;;1.60;1.25;;;19.40;63.70;;;;;;4902246;29;20035;-80
2021/08/09 00:48:05;;;;;;;1.77;1.17;;;19.40;63.80;;;;;;4902194;29;20028;-79
2021/08/09 00:50:32;;;;;;;2.25;1.30;;;19.40;63.80;;;;;;4917798;29;20055;-80
2021/08/09 00:52:59;;;;;;;1.98;1.33;;;19.40;63.80;;;;;;4901742;29;20489;-79
2021/08/09 00:55:25;;;;;;;2.00;1.25;;;19.40;63.90;;;;;;4901954;29;20024;-79
2021/08/09 00:57:52;;;;;;;1.35;1.17;;;19.40;64.50;;;;;;4917744;29;20048;-79
2021/08/09 01:00:24;;;;;;;1.67;1.27;;;19.30;63.80;;;;;;4918298;29;20028;-79
2021/08/09 01:02:51;;;;;;;2.63;1.40;;;19.30;63.80;;;;;;4901623;29;20044;-80
2021/08/09 01:05:17;;;;;;;1.88;1.20;;;19.30;63.90;;;;;;4902365;29;20401;-80
2021/08/09 01:08:05;;;;;;;1.70;1.20;;;19.30;63.90;;;;;;4902987;29;20044;-79
2021/08/09 01:10:54;;;;;;;2.80;1.20;;;19.20;63.90;;;;;;4901825;29;20028;-79
2021/08/09 01:13:50;;;;;;;1.20;1.10;;;19.20;64.00;;;;;;4909482;29;20103;-80
2021/08/09 01:16:20;;;;;;;1.60;1.10;;;19.20;63.90;;;;;;4933221;29;20370;-79
2021/08/09 01:18:47;;;;;;;2.35;1.50;;;19.20;63.90;;;;;;4917373;29;20028;-80
2021/08/09 01:21:18;;;;;;;1.88;1.20;;;19.20;64.00;;;;;;4916815;29;20044;-80
2021/08/09 01:24:18;;;;;;;1.58;1.13;;;19.20;64.10;;;;;;4917160;29;20056;-80
2021/08/09 01:26:51;;;;;;;1.80;1.05;;;19.20;64.20;;;;;;4917744;29;20465;-80
2021/08/09 01:29:32;;;;;;;2.60;1.30;;;19.10;64.00;;;;;;4917745;29;20028;-79
2021/08/09 01:31:59;;;;;;;1.17;1.08;;;19.10;64.10;;;;;;4932987;29;20039;-79
2021/08/09 01:34:28;;;;;;;1.70;1.15;;;19.10;64.10;;;;;;4933422;29;20035;-79
2021/08/09 01:36:56;;;;;;;2.53;1.23;;;19.10;64.10;;;;;;4901749;29;20035;-79
2021/08/09 01:39:24;;;;;;;1.75;1.30;;;19.10;64.20;;;;;;4917012;29;20020;-79
2021/08/09 01:41:53;;;;;;;1.70;1.10;;;19.00;64.20;;;;;;4917990;29;20043;-80
2021/08/09 01:44:20;;;;;;;2.15;1.50;;;19.00;64.10;;;;;;4900944;29;20051;-80
2021/08/09 01:46:47;;;;;;;2.08;1.27;;;19.00;64.10;;;;;;4916838;29;20397;-79
2021/08/09 01:49:14;;;;;;;2.15;1.30;;;19.00;64.20;;;;;;4917025;29;20029;-79
2021/08/09 01:51:40;;;;;;;1.88;1.20;;;19.00;64.20;;;;;;4917197;29;20544;-79
2021/08/09 01:54:09;;;;;;;3.50;1.45;;;19.00;64.20;;;;;;4901232;29;20044;-79
2021/08/09 01:56:39;;;;;;;1.55;1.30;;;19.00;64.20;;;;;;4901311;29;20118;-81
2021/08/09 01:59:06;;;;;;;1.20;1.10;;;19.00;64.20;;;;;;4916758;29;20465;-80
2021/08/09 02:01:32;;;;;;;2.08;1.20;;;19.00;64.20;;;;;;4900825;29;20028;-80
2021/08/09 02:03:58;;;;;;;2.70;1.20;;;18.90;64.20;;;;;;4900590;29;20074;-80
2021/08/09 02:06:24;;;;;;;2.22;1.45;;;18.90;64.20;;;;;;4901471;29;20035;-78
2021/08/09 02:08:50;;;;;;;2.17;1.40;;;18.90;64.20;;;;;;4916368;29;20487;-80
2021/08/09 02:11:26;;;;;;;1.77;1.15;;;18.90;64.30;;;;;;4885250;29;20434;-79
2021/08/09 02:14:00;;;;;;;2.17;1.08;;;18.90;64.30;;;;;;4901019;29;20040;-80
2021/08/09 02:16:45;;;;;;;1.90;1.20;;;18.90;64.40;;;;;;4901002;29;20047;-79
2021/08/09 02:19:20;;;;;;;1.45;1.20;;;18.90;64.30;;;;;;4916484;29;20464;-79
2021/08/09 02:22:00;;;;;;;2.53;1.25;;;18.90;64.30;;;;;;4900046;29;20063;-80
2021/08/09 02:24:38;;;;;;;2.03;1.10;;;18.80;64.30;;;;;;4901664;29;20047;-80
2021/08/09 02:27:11;;;;;;;0.98;0.90;;;18.80;64.30;;;;;;4912066;29;20040;-80
2021/08/09 02:29:43;;;;;;;1.77;0.98;;;18.80;64.30;;;;;;4916399;29;20080;-80
2021/08/09 02:32:12;;;;;;;2.10;1.10;;;18.80;64.40;;;;;;4900874;29;20059;-80
2021/08/09 02:34:39;;;;;;;1.33;1.15;;;18.80;64.40;;;;;;4916256;29;20036;-80
2021/08/09 02:37:08;;;;;;;1.67;1.20;;;18.80;64.40;;;;;;4900947;29;20483;-80
2021/08/09 02:39:35;;;;;;;1.60;1.30;;;18.80;64.50;;;;;;4916519;29;20036;-80
2021/08/09 02:42:02;;;;;;;2.05;1.33;;;18.80;64.50;;;;;;4900440;29;20078;-80
2021/08/09 02:44:29;;;;;;;1.38;1.25;;;18.70;64.40;;;;;;4900448;29;20033;-80
2021/08/09 02:46:57;;;;;;;1.95;1.00;;;18.70;64.50;;;;;;4900344;29;20389;-80
2021/08/09 02:49:23;;;;;;;2.25;1.23;;;18.70;64.50;;;;;;4915958;29;20024;-81
2021/08/09 02:51:49;;;;;;;1.77;1.13;;;18.70;64.50;;;;;;4900937;29;20032;-81
2021/08/09 02:54:20;;;;;;;3.53;1.50;;;18.70;64.50;;;;;;4903434;29;20106;-80
2021/08/09 02:56:47;;;;;;;1.48;0.95;;;18.70;64.60;;;;;;4919683;29;20036;-79
2021/08/09 02:59:14;;;;;;;1.40;1.00;;;18.70;64.50;;;;;;4903644;29;20039;-80
2021/08/09 03:01:41;;;;;;;2.10;1.17;;;18.70;64.60;;;;;;4904303;29;20508;-80
2021/08/09 03:04:10;;;;;;;2.95;1.25;;;18.70;64.60;;;;;;4919695;29;20054;-80
2021/08/09 03:06:37;;;;;;;2.33;1.13;;;18.60;64.50;;;;;;4904404;29;20119;-80
2021/08/09 03:09:05;;;;;;;1.50;1.25;;;18.60;64.50;;;;;;4919272;29;20473;-80
2021/08/09 03:11:35;;;;;;;2.03;1.20;;;18.60;64.60;;;;;;4919640;29;20040;-81
2021/08/09 03:14:02;;;;;;;2.08;1.20;;;18.60;64.60;;;;;;4917703;29;20044;-80
2021/08/09 03:16:27;;;;;;;2.08;1.20;;;18.60;64.60;;;;;;4919441;29;20058;-80
2021/08/09 03:18:53;;;;;;;2.30;1.20;;;18.60;64.60;;;;;;4904127;29;20060;-79
2021/08/09 03:21:19;;;;;;;1.98;1.30;;;18.60;64.60;;;;;;4920722;29;20048;-80
2021/08/09 03:23:45;;;;;;;2.30;1.15;;;18.60;64.60;;;;;;4903371;29;20374;-80
2021/08/09 03:26:11;;;;;;;2.13;1.30;;;18.60;64.60;;;;;;4903620;29;20040;-80
2021/08/09 03:28:37;;;;;;;2.13;1.25;;;18.50;64.60;;;;;;4903903;29;20039;-80
2021/08/09 03:31:04;;;;;;;2.10;1.30;;;18.50;64.60;;;;;;4919545;29;20472;-80
2021/08/09 03:33:30;;;;;;;1.83;1.30;;;18.50;64.60;;;;;;4919383;29;20028;-80
2021/08/09 03:35:57;;;;;;;2.83;1.30;;;18.50;64.60;;;;;;4903625;29;20040;-80
2021/08/09 03:38:22;;;;;;;2.03;1.30;;;18.50;64.60;;;;;;4903320;29;20033;-80
2021/08/09 03:40:49;;;;;;;2.03;1.10;;;18.50;64.60;;;;;;4918848;29;20047;-80
2021/08/09 03:43:15;;;;;;;2.38;1.63;;;18.50;64.60;;;;;;4903128;29;20036;-80
2021/08/09 03:45:41;;;;;;;1.50;1.13;;;18.50;64.60;;;;;;4903422;29;20128;-80
2021/08/09 03:48:10;;;;;;;3.05;1.33;;;18.50;64.70;;;;;;4918831;29;20129;-80
2021/08/09 03:50:37;;;;;;;1.33;1.05;;;18.50;64.70;;;;;;4903298;29;20036;-80
2021/08/09 03:53:04;;;;;;;1.35;1.13;;;18.50;64.70;;;;;;4903145;29;20127;-80
2021/08/09 03:55:30;;;;;;;2.10;1.27;;;18.50;64.70;;;;;;4918635;29;20116;-79
2021/08/09 03:57:56;;;;;;;2.80;1.30;;;18.50;64.70;;;;;;4918579;29;20043;-80
2021/08/09 04:00:22;;;;;;;2.25;1.10;;;18.40;64.70;;;;;;4919209;29;20028;-80
2021/08/09 04:02:50;;;;;;;1.83;1.20;;;18.50;64.70;;;;;;4918618;29;20119;-80
2021/08/09 04:05:22;;;;;;;1.98;1.00;;;18.40;64.70;;;;;;4903405;29;20028;-80
2021/08/09 04:07:50;;;;;;;1.45;1.10;;;18.40;64.70;;;;;;4934235;29;20385;-81
2021/08/09 04:10:16;;;;;;;1.90;1.20;;;18.40;64.70;;;;;;4918390;29;20115;-80
2021/08/09 04:12:42;;;;;;;2.63;1.20;;;18.40;64.80;;;;;;4902613;29;20072;-80
2021/08/09 04:15:08;;;;;;;2.67;1.20;;;18.40;64.80;;;;;;4902599;29;20122;-80
2021/08/09 04:17:34;;;;;;;2.15;1.52;;;18.40;64.80;;;;;;4903420;29;20410;-80
2021/08/09 04:20:01;;;;;;;1.63;1.27;;;18.40;64.80;;;;;;4902598;29;20024;-80
2021/08/09 04:22:27;;;;;;;1.50;1.10;;;18.40;64.80;;;;;;4902104;29;20067;-80
2021/08/09 04:24:53;;;;;;;2.25;1.00;;;18.40;64.80;;;;;;4902209;29;20036;-79
2021/08/09 04:27:18;;;;;;;2.67;1.15;;;18.40;64.80;;;;;;4902368;29;20040;-80
2021/08/09 04:29:44;;;;;;;1.77;1.20;;;18.30;64.80;;;;;;4902344;29;20029;-80
2021/08/09 04:32:15;;;;;;;0.82;0.82;;;18.30;64.80;;;;;;4933795;29;20499;-79
2021/08/09 04:34:40;;;;;;;2.10;1.20;;;18.40;64.90;;;;;;4903135;29;20418;-80
2021/08/09 04:37:07;;;;;;;1.95;1.08;;;18.30;64.80;;;;;;4902265;29;20140;-79
2021/08/09 04:39:32;;;;;;;2.10;1.33;;;18.30;64.90;;;;;;4902483;29;20068;-79
2021/08/09 04:41:58;;;;;;;2.47;1.05;;;18.30;64.80;;;;;;4902226;29;20513;-80
2021/08/09 04:44:24;;;;;;;0.98;0.95;;;18.30;64.90;;;;;;4886413;29;20103;-79
2021/08/09 04:46:50;;;;;;;1.98;1.20;;;18.30;64.90;;;;;;4902271;29;20437;-80
2021/08/09 04:49:16;;;;;;;1.90;1.30;;;18.30;64.90;;;;;;4933480;29;20090;-79
2021/08/09 04:51:42;;;;;;;1.40;1.10;;;18.30;64.90;;;;;;4901682;29;20036;-79
2021/08/09 04:54:07;;;;;;;2.08;1.10;;;18.30;64.90;;;;;;4901955;29;20032;-79
2021/08/09 04:56:33;;;;;;;1.77;1.10;;;18.30;64.90;;;;;;4902161;29;20035;-80
2021/08/09 04:58:59;;;;;;;2.72;1.48;;;18.20;64.80;;;;;;4917474;29;20032;-80
2021/08/09 05:01:25;;;;;;;2.45;1.25;;;18.30;64.90;;;;;;4901783;29;20127;-78
2021/08/09 05:03:51;;;;;;;1.50;1.13;;;18.30;64.90;;;;;;4901659;29;20048;-79
2021/08/09 05:06:23;;;;;;;1.08;0.90;;;18.20;64.90;;;;;;4902392;29;20028;-79
2021/08/09 05:08:50;;;;;;;2.10;1.23;;;18.20;65.60;;;;;;4902737;29;20032;-78
2021/08/09 05:11:15;;;;;;;1.88;1.20;;;18.20;65.00;;;;;;4901852;29;20485;-79
2021/08/09 05:13:41;;;;;;;1.20;1.10;;;18.20;65.00;;;;;;4917338;29;20541;-80
2021/08/09 05:16:07;;;;;;;1.70;1.02;;;18.30;65.10;;;;;;4901619;29;20034;-80
2021/08/09 05:18:33;;;;;;;1.63;1.10;;;18.20;65.00;;;;;;4901406;29;20127;-79
2021/08/09 05:20:59;;;;;;;1.30;1.20;;;18.20;65.00;;;;;;4916809;29;20088;-79
2021/08/09 05:23:24;;;;;;;2.15;1.30;;;18.30;65.10;;;;;;4916730;29;20048;-78
2021/08/09 05:25:50;;;;;;;1.40;1.13;;;18.20;65.10;;;;;;4916995;29;20088;-79
2021/08/09 05:28:16;;;;;;;1.90;1.17;;;18.20;65.10;;;;;;4901287;29;20107;-78
2021/08/09 05:30:43;;;;;;;1.52;1.10;;;18.20;65.10;;;;;;4916828;29;20066;-78
2021/08/09 05:33:10;;;;;;;1.00;0.90;;;18.20;65.10;;;;;;4901066;29;20039;-80
2021/08/09 05:35:37;;;;;;;2.00;1.23;;;18.20;65.10;;;;;;4916887;29;20043;-80
2021/08/09 05:38:03;;;;;;;1.85;1.15;;;18.30;65.10;;;;;;4902059;29;20039;-79
2021/08/09 05:40:30;;;;;;;2.20;1.30;;;18.20;65.10;;;;;;4901914;29;20066;-78
2021/08/09 05:42:57;;;;;;;1.60;1.02;;;18.20;65.10;;;;;;4901344;29;20072;-79
2021/08/09 05:45:24;;;;;;;2.22;1.25;;;18.20;65.10;;;;;;4901524;29;20490;-79
2021/08/09 05:47:49;;;;;;;3.10;1.27;;;18.20;65.10;;;;;;4900990;29;20044;-79
2021/08/09 05:50:15;;;;;;;1.77;1.08;;;18.20;65.10;;;;;;4901218;29;20075;-80
2021/08/09 05:52:52;;;;;;;1.50;1.10;;;18.20;65.20;;;;;;4916387;29;20503;-79
2021/08/09 05:55:17;;;;;;;1.20;1.00;;;18.20;65.10;;;;;;4916821;29;20036;-79
2021/08/09 05:57:44;;;;;;;1.50;1.00;;;18.30;65.20;;;;;;4900982;29;20473;-78
2021/08/09 06:00:11;;;;;;;1.85;1.02;;;18.20;65.20;;;;;;4901361;29;20028;-78
2021/08/09 06:02:47;;;;;;;1.65;1.25;;;18.30;65.30;;;;;;4902834;29;20036;-79
2021/08/09 06:05:46;;;;;;;1.20;1.10;;;18.30;65.20;;;;;;4895779;29;20044;-79
2021/08/09 06:08:15;;;;;;;1.13;1.00;;;18.30;65.20;;;;;;4916632;29;20115;-80
2021/08/09 06:10:41;;;;;;;2.10;1.08;;;18.30;65.20;;;;;;4900772;29;20073;-80
2021/08/09 06:13:11;;;;;;;2.38;1.20;;;18.30;65.30;;;;;;4901242;29;20396;-78
2021/08/09 06:15:36;;;;;;;1.48;1.20;;;18.30;65.30;;;;;;4901417;29;20127;-80
2021/08/09 06:18:03;;;;;;;2.90;1.20;;;18.30;65.30;;;;;;4900707;29;20039;-80
2021/08/09 06:20:30;;;;;;;1.98;1.20;;;18.30;65.30;;;;;;4900396;29;20068;-82
2021/08/09 06:22:57;;;;;;;1.77;0.90;;;18.30;65.30;;;;;;4900766;29;20538;-81
2021/08/09 06:25:23;;;;;;;2.20;1.10;;;18.30;65.30;;;;;;4916337;29;20032;-79
2021/08/09 06:27:50;;;;;;;1.05;0.85;;;18.40;65.40;;;;;;4900514;29;20115;-80
2021/08/09 06:30:17;;;;;;;1.23;1.02;;;18.40;65.40;;;;;;4900778;29;20060;-81
2021/08/09 06:32:43;;;;;;;1.75;1.25;;;18.40;65.40;;;;;;4901406;29;20369;-81
2021/08/09 06:35:11;;;;;;;1.10;1.00;;;18.40;65.40;;;;;;4901319;29;20036;-82
2021/08/09 06:37:38;;;;;;;2.20;1.20;;;18.40;65.30;;;;;;4901076;29;20473;-81
2021/08/09 06:40:05;;;;;;;1.17;1.08;;;18.40;65.40;;;;;;4900889;29;20036;-82
2021/08/09 06:42:31;;;;;;;1.38;1.00;;;18.40;65.40;;;;;;4916293;29;20084;-82
2021/08/09 06:45:32;;;;;;;1.83;1.10;;;18.40;65.40;;;;;;4910085;29;20048;-82
2021/08/09 06:47:58;;;;;;;1.52;1.08;;;18.40;65.30;;;;;;4916564;29;20036;-82
2021/08/09 06:50:24;;;;;;;1.50;1.13;;;18.40;65.30;;;;;;4900855;29;20131;-83
2021/08/09 06:52:51;;;;;;;1.10;1.00;;;18.40;65.30;;;;;;4900583;29;20051;-83
2021/08/09 06:55:16;;;;;;;1.75;1.20;;;18.40;66.00;;;;;;4916427;29;20032;-81
2021/08/09 06:57:43;;;;;;;1.30;1.20;;;18.40;65.30;;;;;;4900606;29;20477;-82
2021/08/09 07:00:10;;;;;;;1.50;1.05;;;18.50;65.40;;;;;;4900717;29;20028;-81
2021/08/09 07:02:36;;;;;;;2.05;1.13;;;18.50;65.40;;;;;;4916717;29;20047;-79
2021/08/09 07:05:02;;;;;;;1.42;1.02;;;18.50;65.40;;;;;;4915847;29;20036;-81
2021/08/09 07:07:28;;;;;;;1.63;1.10;;;18.50;65.40;;;;;;4900287;29;20043;-80
2021/08/09 07:09:54;;;;;;;1.42;1.10;;;18.50;65.40;;;;;;4901107;29;20032;-82
2021/08/09 07:12:20;;;;;;;1.48;1.00;;;18.50;65.40;;;;;;4900243;29;20055;-80
2021/08/09 07:14:46;;;;;;;1.08;1.00;;;18.50;65.30;;;;;;4915939;29;20055;-80
2021/08/09 07:17:12;;;;;;;1.67;1.25;;;18.50;65.30;;;;;;4900985;29;20088;-80
2021/08/09 07:19:40;;;;;;;1.90;1.08;;;18.50;65.30;;;;;;4915792;29;20028;-81
2021/08/09 07:22:06;;;;;;;1.20;1.10;;;18.50;65.40;;;;;;4900067;29;20048;-78
2021/08/09 07:24:36;;;;;;;2.50;1.33;;;18.60;65.30;;;;;;4915734;29;20048;-78
2021/08/09 07:27:02;;;;;;;1.38;1.10;;;18.60;65.30;;;;;;4900131;29;20434;-76
2021/08/09 07:29:29;;;;;;;1.60;1.25;;;18.60;65.30;;;;;;4900228;29;20017;-78
2021/08/09 07:31:56;;;;;;;2.03;1.20;;;18.60;66.00;;;;;;4900497;29;20032;-77
2021/08/09 07:34:22;;;;;;;1.30;1.05;;;18.60;65.30;;;;;;4899917;29;20028;-78
2021/08/09 07:36:47;;;;;;;1.60;1.08;;;18.70;65.40;;;;;;4931374;29;20036;-78
2021/08/09 07:39:14;;;;;;;1.88;1.17;;;18.60;65.30;;;;;;4916537;29;20020;-78
2021/08/09 07:41:39;;;;;;;1.40;1.08;;;18.70;65.40;;;;;;4903436;29;20499;-78
2021/08/09 07:44:06;;;;;;;1.10;1.00;;;18.70;65.40;;;;;;4903006;29;20051;-78
2021/08/09 07:46:32;;;;;;;2.08;1.27;;;18.70;65.40;;;;;;4903944;29;20500;-77
2021/08/09 07:48:59;;;;;;;1.17;1.00;;;18.70;65.40;;;;;;4903318;29;20028;-78
2021/08/09 07:51:26;;;;;;;1.63;1.17;;;18.70;65.40;;;;;;4903531;29;20032;-78
2021/08/09 07:53:54;;;;;;;1.80;1.13;;;18.70;65.30;;;;;;4918685;29;20135;-78
2021/08/09 07:56:19;;;;;;;1.15;1.00;;;18.80;65.40;;;;;;4918599;29;20132;-78
2021/08/09 07:58:45;;;;;;;1.50;0.95;;;18.80;66.00;;;;;;4918276;29;20036;-78
2021/08/09 08:01:11;;;;;;;1.02;0.93;;;18.80;65.30;;;;;;4919275;29;20087;-78
2021/08/09 08:03:39;;;;;;;2.33;1.17;;;18.80;65.30;;;;;;4903819;29;20147;-77
2021/08/09 08:06:05;;;;;;;1.10;1.00;;;18.90;65.30;;;;;;4902580;29;20140;-78
2021/08/09 08:08:31;;;;;;;1.70;1.20;;;18.90;65.30;;;;;;4902710;29;20039;-78
2021/08/09 08:10:59;;;;;;;2.58;1.10;;;18.90;65.20;;;;;;4919104;29;20071;-78
2021/08/09 08:13:25;;;;;;;1.15;0.90;;;19.00;65.20;;;;;;4902353;29;20036;-78
2021/08/09 08:15:52;;;;;;;1.50;1.20;;;19.00;65.20;;;;;;4902886;29;20039;-78
2021/08/09 08:18:19;;;;;;;1.05;0.95;;;19.10;65.20;;;;;;4917844;29;20040;-78
2021/08/09 08:20:47;;;;;;;1.30;1.10;;;19.10;65.20;;;;;;4902545;29;20052;-78
2021/08/09 08:23:13;;;;;;;1.40;1.08;;;19.10;65.10;;;;;;4902842;29;20161;-78
2021/08/09 08:25:39;;;;;;;1.30;1.05;;;19.20;65.10;;;;;;4918880;29;20044;-78
2021/08/09 08:28:05;;;;;;;2.05;1.30;;;19.20;65.00;;;;;;4918845;29;20369;-78
2021/08/09 08:30:31;;;;;;;1.45;1.10;;;19.30;64.90;;;;;;4918930;29;20055;-78
2021/08/09 08:32:57;;;;;;;1.52;1.10;;;19.30;64.80;;;;;;4919470;29;20366;-79
2021/08/09 08:35:24;;;;;;;2.08;1.10;;;19.40;64.80;;;;;;4918138;29;20039;-78
2021/08/09 08:37:52;;;;;;;1.98;1.15;;;19.40;64.70;;;;;;4918418;29;20357;-78
2021/08/09 08:40:19;;;;;;;2.38;1.10;;;19.50;64.60;;;;;;4917902;29;20040;-78
2021/08/09 08:42:47;;;;;;;2.05;1.13;;;19.50;64.50;;;;;;4902331;29;20064;-79
2021/08/09 08:45:18;;;;;;;1.77;1.30;;;19.60;64.50;;;;;;4902458;29;20047;-78
2021/08/09 08:47:45;;;;;;;1.42;1.00;;;19.70;64.50;;;;;;4902680;29;20131;-78
2021/08/09 08:50:11;;;;;;;1.98;1.00;;;19.70;64.40;;;;;;4902138;29;20457;-78
2021/08/09 08:52:42;;;;;;;1.05;0.95;;;19.80;64.30;;;;;;4901718;29;20043;-78
2021/08/09 08:55:10;;;;;;;1.70;1.15;;;19.80;64.20;;;;;;4902834;29;20047;-78
2021/08/09 08:57:35;;;;;;;2.33;1.25;;;19.90;64.20;;;;;;4902613;29;20036;-78
2021/08/09 09:00:01;;;;;;;1.75;1.00;;;20.00;64.10;;;;;;4917512;29;20028;-78
2021/08/09 09:02:37;;;;;;;1.70;1.20;;;20.00;64.00;;;;;;4901804;29;20441;-78
2021/08/09 09:05:13;;;;;;;1.02;0.93;;;20.10;64.00;;;;;;4917714;29;20127;-78
2021/08/09 09:07:43;;;;;;;1.15;1.05;;;20.20;64.00;;;;;;4918299;29;20048;-78
2021/08/09 09:10:16;;;;;;;1.13;0.95;;;20.20;63.90;;;;;;4933590;29;20119;-81
2021/08/09 09:12:42;;;;;;;1.83;0.80;;;20.30;63.90;;;;;;4901834;29;20088;-80
2021/08/09 09:15:08;;;;;;;1.17;1.00;;;20.40;63.80;;;;;;4902793;29;20406;-81
2021/08/09 09:17:35;;;;;;;0.90;0.85;;;20.40;63.80;;;;;;4917765;29;20036;-83
2021/08/09 09:20:20;;;;;;;1.73;1.20;;;20.50;63.70;;;;;;4918939;29;20024;-83
2021/08/09 09:22:46;;;;;;;1.10;0.98;;;20.50;63.80;;;;;;4917657;29;20079;-83
2021/08/09 09:25:11;;;;;;;0.95;0.80;;;20.60;63.50;;;;;;4901977;29;20397;-83
2021/08/09 09:27:37;;;;;;;1.10;0.90;;;20.70;63.50;;;;;;4917803;29;20118;-83
2021/08/09 09:30:26;;;;;;;1.20;0.88;;;20.80;63.50;;;;;;4901605;29;20032;-83
2021/08/09 09:33:02;;;;;;;1.48;1.00;;;20.80;63.50;;;;;;4901799;29;20035;-82
2021/08/09 09:35:27;;;;;;;0.80;0.80;;;20.90;63.40;;;;;;4917255;29;20067;-83
2021/08/09 09:37:54;;;;;;;0.98;0.80;;;20.90;63.30;;;;;;4918606;29;20060;-83
2021/08/09 09:40:20;;;;;;;1.55;1.00;;;21.00;63.30;;;;;;4901639;29;20032;-83
2021/08/09 09:42:47;;;;;;;1.23;1.00;;;21.10;63.20;;;;;;4917317;29;20047;-82
2021/08/09 09:45:30;;;;;;;1.17;1.00;;;21.10;63.20;;;;;;4901788;29;20028;-83
2021/08/09 09:48:03;;;;;;;0.90;0.90;;;21.20;63.20;;;;;;4933255;29;20401;-83
2021/08/09 09:50:29;;;;;;;1.98;1.05;;;21.30;63.10;;;;;;4917191;29;20036;-83
2021/08/09 09:52:55;;;;;;;0.88;0.85;;;21.30;63.00;;;;;;4917189;29;20038;-84
2021/08/09 09:55:21;;;;;;;1.55;1.00;;;21.40;63.00;;;;;;4920445;29;20059;-84
2021/08/09 09:57:47;;;;;;;0.80;0.70;;;21.50;63.10;;;;;;4901960;29;20020;-84
2021/08/09 10:00:16;;;;;;;1.40;1.10;;;21.50;63.00;;;;;;4901096;29;20075;-83
2021/08/09 10:02:46;;;;;;;1.40;1.00;;;21.60;63.00;;;;;;4916047;29;20032;-83
2021/08/09 10:05:14;;;;;;;1.65;1.00;;;21.70;63.00;;;;;;4917114;29;20119;-83
2021/08/09 10:07:41;;;;;;;1.30;1.08;;;21.80;62.90;;;;;;4901746;29;20040;-83
2021/08/09 10:10:09;;;;;;;1.40;0.93;;;21.80;62.80;;;;;;4901293;29;20070;-83
2021/08/09 10:12:36;;;;;;;1.83;0.95;;;21.90;62.90;;;;;;4917980;29;20111;-82
2021/08/09 10:15:04;;;;;;;1.60;0.93;;;21.90;62.70;;;;;;4918475;29;20417;-84
2021/08/09 10:17:31;;;;;;;1.25;0.90;;;22.00;62.70;;;;;;4916855;29;20020;-83
2021/08/09 10:20:06;;;;;;;1.05;0.90;;;22.10;62.70;;;;;;4900970;29;20036;-83
2021/08/09 10:22:32;;;;;;;1.65;1.00;;;22.10;62.70;;;;;;4916363;29;20052;-83
2021/08/09 10:24:59;;;;;;;1.10;0.90;;;22.20;62.60;;;;;;4916837;29;20127;-84
2021/08/09 10:27:46;;;;;;;0.80;0.75;;;22.30;62.60;;;;;;4916977;29;20028;-78
2021/08/09 10:30:18;;;;;;;1.15;0.90;;;22.30;62.70;;;;;;4917485;29;20032;-84
2021/08/09 10:32:57;;;;;;;0.80;0.80;;;22.40;62.50;;;;;;4916364;29;20043;-79
2021/08/09 10:35:54;;;;;;;1.05;0.98;;;22.50;62.60;;;;;;4916118;29;20028;-77
2021/08/09 10:38:23;;;;;;;1.05;0.80;;;22.50;62.60;;;;;;4917157;29;20043;-77
2021/08/09 10:41:01;;;;;;;0.80;0.77;;;22.60;62.40;;;;;;4915939;29;20076;-77
2021/08/09 10:43:27;;;;;;;1.58;0.95;;;22.60;62.40;;;;;;4915645;29;20466;-79
2021/08/09 10:45:53;;;;;;;1.50;0.90;;;22.70;62.30;;;;;;4915834;29;20047;-77
2021/08/09 10:48:41;;;;;;;1.73;1.00;;;22.70;62.30;;;;;;4917976;29;20036;-79
2021/08/09 10:51:07;;;;;;;1.40;1.00;;;22.80;62.40;;;;;;4916498;29;20060;-78
2021/08/09 10:53:35;;;;;;;0.88;0.82;;;22.80;62.20;;;;;;4899872;29;20070;-77
2021/08/09 10:56:02;;;;;;;1.52;1.13;;;22.90;62.20;;;;;;4915805;29;20389;-77
2021/08/09 10:58:43;;;;;;;1.00;0.70;;;22.90;62.10;;;;;;4915508;29;20028;-79
2021/08/09 11:01:13;;;;;;;0.90;0.90;;;22.90;62.20;;;;;;4900189;29;20496;-78
2021/08/09 11:04:04;;;;;;;1.73;0.90;;;23.00;62.10;;;;;;4915496;29;20043;-77
2021/08/09 11:06:49;;;;;;;1.65;1.00;;;23.00;62.20;;;;;;4917137;29;20048;-83
2021/08/09 11:09:41;;;;;;;0.80;0.80;;;23.10;62.10;;;;;;4900628;29;20032;-79
2021/08/09 11:12:23;;;;;;;1.67;1.00;;;23.10;62.10;;;;;;4914441;29;20052;-80
2021/08/09 11:17:30;;;;;;;0.63;0.63;;;23.20;61.90;;;;;;4920783;29;20036;-80
2021/08/09 11:20:16;;;;;;;1.17;1.00;;;23.20;61.80;;;;;;4903634;29;20087;-79
2021/08/09 11:23:04;;;;;;;1.13;0.80;;;23.30;61.90;;;;;;4903034;29;20044;-81
2021/08/09 11:25:35;;;;;;;1.25;1.00;;;23.30;61.70;;;;;;4919013;29;20079;-81
2021/08/09 11:28:24;;;;;;;0.80;0.77;;;23.30;61.60;;;;;;4935286;29;20036;-81
2021/08/09 11:30:51;;;;;;;0.98;0.90;;;23.30;61.60;;;;;;4903836;29;20032;-80
2021/08/09 11:33:29;;;;;;;1.80;1.00;;;23.40;61.50;;;;;;4903517;29;20119;-80
2021/08/09 11:36:07;;;;;;;1.25;0.88;;;23.40;61.40;;;;;;4919055;29;20032;-80
2021/08/09 11:38:47;;;;;;;1.65;1.05;;;23.40;61.40;;;;;;4918823;29;20028;-81
2021/08/09 11:41:16;;;;;;;1.63;0.80;;;23.40;61.40;;;;;;4920778;29;20034;-80
2021/08/09 11:43:41;;;;;;;1.05;0.75;;;23.50;61.40;;;;;;4903622;29;20370;-80
2021/08/09 11:46:13;;;;;;;1.90;1.10;;;23.50;61.40;;;;;;4902858;29;20043;-82
2021/08/09 11:48:41;;;;;;;1.05;0.82;;;23.50;61.40;;;;;;4904038;29;20451;-81
2021/08/09 11:51:12;;;;;;;1.08;0.80;;;23.50;61.40;;;;;;4918975;29;20024;-80
2021/08/09 11:53:39;;;;;;;1.55;0.93;;;23.50;61.40;;;;;;4903254;29;20043;-80
2021/08/09 11:56:06;;;;;;;1.52;0.77;;;23.50;61.40;;;;;;4918448;29;20024;-80
2021/08/09 11:58:32;;;;;;;1.55;0.77;;;23.50;61.40;;;;;;4918876;29;20036;-80
2021/08/09 12:00:58;;;;;;;1.95;1.02;;;23.50;61.40;;;;;;4918689;29;20502;-79
2021/08/09 12:03:27;;;;;;;2.60;0.90;;;23.50;61.30;;;;;;4918292;29;20040;-80
2021/08/09 12:06:13;;;;;;;1.20;0.88;;;23.60;61.40;;;;;;4918656;29;20032;-80
2021/08/09 12:08:56;;;;;;;1.25;0.90;;;23.60;62.00;;;;;;4917668;29;20036;-80
2021/08/09 12:11:31;;;;;;;1.13;0.80;;;23.50;61.30;;;;;;4902343;29;20032;-81
2021/08/09 12:14:10;;;;;;;1.35;0.90;;;23.60;61.30;;;;;;4919375;29;20056;-81
2021/08/09 12:16:47;;;;;;;0.88;0.85;;;23.60;61.20;;;;;;4919182;29;20032;-81
2021/08/09 12:19:14;;;;;;;0.80;0.75;;;23.60;61.20;;;;;;4919059;29;20028;-80
2021/08/09 12:21:40;;;;;;;0.73;0.65;;;23.60;61.10;;;;;;4902245;29;20080;-79
2021/08/09 12:24:15;;;;;;;1.17;0.88;;;23.60;61.10;;;;;;4918845;29;20438;-79
2021/08/09 12:26:40;;;;;;;;;;;23.60;61.10;;;;;;4917402;29;20108;-79
2021/08/09 12:29:14;;;;;;;0.80;0.80;;;23.60;61.40;;;;;;4903027;29;20383;-80
2021/08/09 12:31:45;;;;;;;1.15;0.60;;;23.70;61.00;;;;;;4918853;29;20520;-80
2021/08/09 12:34:12;;;;;;;0.80;0.80;;;23.70;61.00;;;;;;4917874;29;20478;-79
2021/08/09 12:36:39;;;;;;;1.90;0.85;;;23.70;61.00;;;;;;4902334;29;20028;-81
2021/08/09 12:39:07;;;;;;;1.75;1.08;;;23.70;60.90;;;;;;4902354;29;20028;-80
2021/08/09 12:41:34;;;;;;;1.20;0.80;;;23.80;61.00;;;;;;4918382;29;20047;-81
2021/08/09 12:44:06;;;;;;;1.63;1.00;;;23.80;61.00;;;;;;4918029;29;20036;-81
2021/08/09 12:46:33;;;;;;;0.95;0.68;;;23.80;60.90;;;;;;4920168;29;20098;-81
2021/08/09 12:49:00;;;;;;;1.38;1.02;;;23.80;60.90;;;;;;4905228;29;20035;-82
2021/08/09 12:51:26;;;;;;;1.40;1.10;;;23.80;60.90;;;;;;4903961;29;20036;-82
2021/08/09 12:53:52;;;;;;;1.35;0.93;;;23.90;60.90;;;;;;4920224;29;20028;-83
2021/08/09 12:56:18;;;;;;;1.52;0.98;;;23.90;60.90;;;;;;4902085;29;20040;-83
2021/08/09 12:58:44;;;;;;;1.02;0.73;;;23.90;60.80;;;;;;4901994;29;20488;-82
2021/08/09 13:01:09;;;;;;;2.13;0.82;;;23.90;60.70;;;;;;4902443;29;20040;-82